sensor_id;sensor_type;location;lat;lon;timestamp;temperature;humidity
57636;DHT22;43465;50.728;4.160;2023-11-19T00:02:19;14.20;99.90
57636;DHT22;43465;50.728;4.160;2023-11-19T00:04:44;14.20;99.90
57636;DHT22;43465;50.728;4.160;2023-11-19T00:07:10;14.20;99.90
57636;DHT22;43465;50.728;4.160;2023-11-19T00:09:37;14.20;99.90
57636;DHT22;43465;50.728;4.160;2023-11-19T00:12:04;14.20;99.90
57636;DHT22;43465;50.728;4.160;2023-11-19T00:14:30;14.30;99.90
57636;DHT22;43465;50.728;4.160;2023-11-19T00:16:56;14.30;99.90
57636;DHT22;43465;50.728;4.160;2023-11-19T00:19:22;14.30;99.90
57636;DHT22;43465;50.728;4.160;2023-11-19T00:21:47;14.30;99.90
57636;DHT22;43465;50.728;4.160;2023-11-19T00:24:13;14.30;99.90
57636;DHT22;43465;50.728;4.160;2023-11-19T00:26:42;14.40;99.90
57636;DHT22;43465;50.728;4.160;2023-11-19T00:29:08;14.40;99.90
57636;DHT22;43465;50.728;4.160;2023-11-19T00:31:34;14.40;99.90
57636;DHT22;43465;50.728;4.160;2023-11-19T00:34:00;14.40;99.90
57636;DHT22;43465;50.728;4.160;2023-11-19T00:36:27;14.40;99.90
57636;DHT22;43465;50.728;4.160;2023-11-19T00:38:54;14.40;99.90
57636;DHT22;43465;50.728;4.160;2023-11-19T00:41:19;14.40;99.90
57636;DHT22;43465;50.728;4.160;2023-11-19T00:43:45;14.30;99.90
57636;DHT22;43465;50.728;4.160;2023-11-19T00:46:10;14.30;99.90
57636;DHT22;43465;50.728;4.160;2023-11-19T00:48:37;14.30;99.90
57636;DHT22;43465;50.728;4.160;2023-11-19T00:51:02;14.30;99.90
57636;DHT22;43465;50.728;4.160;2023-11-19T00:53:30;14.30;99.90
57636;DHT22;43465;50.728;4.160;2023-11-19T00:55:56;14.30;99.90
57636;DHT22;43465;50.728;4.160;2023-11-19T00:58:22;14.30;99.90
57636;DHT22;43465;50.728;4.160;2023-11-19T01:00:48;14.30;99.90
57636;DHT22;43465;50.728;4.160;2023-11-19T01:03:13;14.30;99.90
57636;DHT22;43465;50.728;4.160;2023-11-19T01:05:41;14.30;99.90
57636;DHT22;43465;50.728;4.160;2023-11-19T01:08:07;14.20;99.90
57636;DHT22;43465;50.728;4.160;2023-11-19T01:10:33;14.20;99.90
57636;DHT22;43465;50.728;4.160;2023-11-19T01:12:59;14.10;99.90
57636;DHT22;43465;50.728;4.160;2023-11-19T01:15:25;14.10;99.90
57636;DHT22;43465;50.728;4.160;2023-11-19T01:17:51;14.10;99.90
57636;DHT22;43465;50.728;4.160;2023-11-19T01:20:17;14.10;99.90
57636;DHT22;43465;50.728;4.160;2023-11-19T01:22:43;14.00;99.90
57636;DHT22;43465;50.728;4.160;2023-11-19T01:25:09;14.00;99.90
57636;DHT22;43465;50.728;4.160;2023-11-19T01:27:34;14.00;99.90
57636;DHT22;43465;50.728;4.160;2023-11-19T01:30:01;14.00;99.90
57636;DHT22;43465;50.728;4.160;2023-11-19T01:32:29;14.00;99.90
57636;DHT22;43465;50.728;4.160;2023-11-19T01:34:55;14.00;99.90
57636;DHT22;43465;50.728;4.160;2023-11-19T01:37:20;14.00;99.90
57636;DHT22;43465;50.728;4.160;2023-11-19T01:39:46;14.10;99.90
57636;DHT22;43465;50.728;4.160;2023-11-19T01:42:11;14.00;99.90
57636;DHT22;43465;50.728;4.160;2023-11-19T01:44:37;14.10;99.90
57636;DHT22;43465;50.728;4.160;2023-11-19T01:47:03;14.10;99.90
57636;DHT22;43465;50.728;4.160;2023-11-19T01:49:31;14.10;99.90
57636;DHT22;43465;50.728;4.160;2023-11-19T01:51:58;14.00;99.90
57636;DHT22;43465;50.728;4.160;2023-11-19T01:54:24;14.00;99.90
57636;DHT22;43465;50.728;4.160;2023-11-19T01:56:52;14.00;99.90
57636;DHT22;43465;50.728;4.160;2023-11-19T01:59:19;13.90;99.90
57636;DHT22;43465;50.728;4.160;2023-11-19T02:01:52;13.90;99.90
57636;DHT22;43465;50.728;4.160;2023-11-19T02:04:17;13.90;99.90
57636;DHT22;43465;50.728;4.160;2023-11-19T02:06:43;13.80;99.90
57636;DHT22;43465;50.728;4.160;2023-11-19T02:09:10;13.80;99.90
57636;DHT22;43465;50.728;4.160;2023-11-19T02:11:36;13.80;99.90
57636;DHT22;43465;50.728;4.160;2023-11-19T02:14:02;13.70;99.90
57636;DHT22;43465;50.728;4.160;2023-11-19T02:16:29;13.80;99.90
57636;DHT22;43465;50.728;4.160;2023-11-19T02:18:55;13.70;99.90
57636;DHT22;43465;50.728;4.160;2023-11-19T02:21:21;13.70;99.90
57636;DHT22;43465;50.728;4.160;2023-11-19T02:23:46;13.70;99.90
57636;DHT22;43465;50.728;4.160;2023-11-19T02:26:21;13.70;99.90
57636;DHT22;43465;50.728;4.160;2023-11-19T02:28:51;13.70;99.90
57636;DHT22;43465;50.728;4.160;2023-11-19T02:31:17;13.80;99.90
57636;DHT22;43465;50.728;4.160;2023-11-19T02:33:44;13.80;99.90
57636;DHT22;43465;50.728;4.160;2023-11-19T02:36:10;13.80;99.90
57636;DHT22;43465;50.728;4.160;2023-11-19T02:38:36;13.80;99.90
57636;DHT22;43465;50.728;4.160;2023-11-19T02:41:06;13.80;99.90
57636;DHT22;43465;50.728;4.160;2023-11-19T02:43:32;13.80;99.90
57636;DHT22;43465;50.728;4.160;2023-11-19T02:46:03;13.70;99.90
57636;DHT22;43465;50.728;4.160;2023-11-19T02:48:33;13.70;99.90
57636;DHT22;43465;50.728;4.160;2023-11-19T02:51:03;13.60;99.90
57636;DHT22;43465;50.728;4.160;2023-11-19T02:53:30;13.60;99.90
57636;DHT22;43465;50.728;4.160;2023-11-19T02:55:56;13.60;99.90
57636;DHT22;43465;50.728;4.160;2023-11-19T02:58:28;13.50;99.90
57636;DHT22;43465;50.728;4.160;2023-11-19T03:00:55;13.50;99.90
57636;DHT22;43465;50.728;4.160;2023-11-19T03:03:25;13.40;99.90
57636;DHT22;43465;50.728;4.160;2023-11-19T03:05:56;13.40;99.90
57636;DHT22;43465;50.728;4.160;2023-11-19T03:08:22;13.40;99.90
57636;DHT22;43465;50.728;4.160;2023-11-19T03:10:48;13.30;99.90
57636;DHT22;43465;50.728;4.160;2023-11-19T03:13:14;13.30;99.90
57636;DHT22;43465;50.728;4.160;2023-11-19T03:15:41;13.30;99.90
57636;DHT22;43465;50.728;4.160;2023-11-19T03:18:07;13.30;99.90
57636;DHT22;43465;50.728;4.160;2023-11-19T03:20:32;13.20;99.90
57636;DHT22;43465;50.728;4.160;2023-11-19T03:22:59;13.20;99.90
57636;DHT22;43465;50.728;4.160;2023-11-19T03:25:25;13.20;99.90
57636;DHT22;43465;50.728;4.160;2023-11-19T03:28:00;13.20;99.90
57636;DHT22;43465;50.728;4.160;2023-11-19T03:30:29;13.10;99.90
57636;DHT22;43465;50.728;4.160;2023-11-19T03:32:58;13.10;99.90
57636;DHT22;43465;50.728;4.160;2023-11-19T03:35:25;13.00;99.90
57636;DHT22;43465;50.728;4.160;2023-11-19T03:37:51;13.00;99.90
57636;DHT22;43465;50.728;4.160;2023-11-19T03:40:17;13.00;99.90
57636;DHT22;43465;50.728;4.160;2023-11-19T03:42:45;13.00;99.90
57636;DHT22;43465;50.728;4.160;2023-11-19T03:45:10;13.00;99.90
57636;DHT22;43465;50.728;4.160;2023-11-19T03:47:36;13.10;99.90
57636;DHT22;43465;50.728;4.160;2023-11-19T03:50:02;13.10;99.90
57636;DHT22;43465;50.728;4.160;2023-11-19T03:52:29;13.10;99.90
57636;DHT22;43465;50.728;4.160;2023-11-19T03:54:54;13.20;99.90
57636;DHT22;43465;50.728;4.160;2023-11-19T03:57:21;13.20;99.90
57636;DHT22;43465;50.728;4.160;2023-11-19T03:59:47;13.20;99.90
57636;DHT22;43465;50.728;4.160;2023-11-19T04:02:13;13.20;99.90
57636;DHT22;43465;50.728;4.160;2023-11-19T04:04:39;13.20;99.90
57636;DHT22;43465;50.728;4.160;2023-11-19T04:07:05;13.10;99.90
57636;DHT22;43465;50.728;4.160;2023-11-19T04:09:31;13.10;99.90
57636;DHT22;43465;50.728;4.160;2023-11-19T04:11:59;13.00;99.90
57636;DHT22;43465;50.728;4.160;2023-11-19T04:14:26;13.00;99.90
57636;DHT22;43465;50.728;4.160;2023-11-19T04:16:52;12.90;99.90
57636;DHT22;43465;50.728;4.160;2023-11-19T04:19:18;12.90;99.90
57636;DHT22;43465;50.728;4.160;2023-11-19T04:21:44;12.90;99.90
57636;DHT22;43465;50.728;4.160;2023-11-19T04:24:10;12.90;99.90
57636;DHT22;43465;50.728;4.160;2023-11-19T04:26:48;12.90;99.90
57636;DHT22;43465;50.728;4.160;2023-11-19T04:29:15;13.00;99.90
57636;DHT22;43465;50.728;4.160;2023-11-19T04:31:43;13.00;99.90
57636;DHT22;43465;50.728;4.160;2023-11-19T04:34:09;13.00;99.90
57636;DHT22;43465;50.728;4.160;2023-11-19T04:36:35;13.00;99.90
57636;DHT22;43465;50.728;4.160;2023-11-19T04:39:01;13.00;99.90
57636;DHT22;43465;50.728;4.160;2023-11-19T04:41:27;12.90;99.90
57636;DHT22;43465;50.728;4.160;2023-11-19T04:43:55;12.90;99.90
57636;DHT22;43465;50.728;4.160;2023-11-19T04:46:21;12.90;99.90
57636;DHT22;43465;50.728;4.160;2023-11-19T04:48:47;12.90;99.90
57636;DHT22;43465;50.728;4.160;2023-11-19T04:51:13;12.90;99.90
57636;DHT22;43465;50.728;4.160;2023-11-19T04:53:38;12.90;99.90
57636;DHT22;43465;50.728;4.160;2023-11-19T04:56:08;12.90;99.90
57636;DHT22;43465;50.728;4.160;2023-11-19T04:58:34;12.90;99.90
57636;DHT22;43465;50.728;4.160;2023-11-19T05:01:03;12.90;99.90
57636;DHT22;43465;50.728;4.160;2023-11-19T05:03:29;12.90;99.90
57636;DHT22;43465;50.728;4.160;2023-11-19T05:05:55;12.90;99.90
57636;DHT22;43465;50.728;4.160;2023-11-19T05:08:21;12.90;99.90
57636;DHT22;43465;50.728;4.160;2023-11-19T05:10:46;12.90;99.90
57636;DHT22;43465;50.728;4.160;2023-11-19T05:13:12;12.90;99.90
57636;DHT22;43465;50.728;4.160;2023-11-19T05:15:38;13.00;99.90
57636;DHT22;43465;50.728;4.160;2023-11-19T05:18:04;13.00;99.90
57636;DHT22;43465;50.728;4.160;2023-11-19T05:20:30;13.00;99.90
57636;DHT22;43465;50.728;4.160;2023-11-19T05:22:56;13.00;99.90
57636;DHT22;43465;50.728;4.160;2023-11-19T05:25:22;13.00;99.90
57636;DHT22;43465;50.728;4.160;2023-11-19T05:27:47;13.10;99.90
57636;DHT22;43465;50.728;4.160;2023-11-19T05:30:13;13.10;99.90
57636;DHT22;43465;50.728;4.160;2023-11-19T05:32:39;13.10;99.90
57636;DHT22;43465;50.728;4.160;2023-11-19T05:35:05;13.00;99.90
57636;DHT22;43465;50.728;4.160;2023-11-19T05:37:30;13.00;99.90
57636;DHT22;43465;50.728;4.160;2023-11-19T05:39:56;12.90;99.90
57636;DHT22;43465;50.728;4.160;2023-11-19T05:42:22;12.80;99.90
57636;DHT22;43465;50.728;4.160;2023-11-19T05:44:49;12.80;99.90
57636;DHT22;43465;50.728;4.160;2023-11-19T05:47:14;12.70;99.90
57636;DHT22;43465;50.728;4.160;2023-11-19T05:49:40;12.70;99.90
57636;DHT22;43465;50.728;4.160;2023-11-19T05:52:06;12.60;99.90
57636;DHT22;43465;50.728;4.160;2023-11-19T05:54:33;12.60;99.90
57636;DHT22;43465;50.728;4.160;2023-11-19T05:57:06;12.60;99.90
57636;DHT22;43465;50.728;4.160;2023-11-19T05:59:35;12.50;99.90
57636;DHT22;43465;50.728;4.160;2023-11-19T06:02:01;12.50;99.90
57636;DHT22;43465;50.728;4.160;2023-11-19T06:04:28;12.50;99.90
57636;DHT22;43465;50.728;4.160;2023-11-19T06:06:53;12.60;99.90
57636;DHT22;43465;50.728;4.160;2023-11-19T06:09:21;12.60;99.90
57636;DHT22;43465;50.728;4.160;2023-11-19T06:11:48;12.60;99.90
57636;DHT22;43465;50.728;4.160;2023-11-19T06:14:14;12.60;99.90
57636;DHT22;43465;50.728;4.160;2023-11-19T06:16:40;12.60;99.90
57636;DHT22;43465;50.728;4.160;2023-11-19T06:19:05;12.60;99.90
57636;DHT22;43465;50.728;4.160;2023-11-19T06:21:31;12.60;99.90
57636;DHT22;43465;50.728;4.160;2023-11-19T06:23:57;12.50;99.90
57636;DHT22;43465;50.728;4.160;2023-11-19T06:26:23;12.50;99.90
57636;DHT22;43465;50.728;4.160;2023-11-19T06:28:49;12.50;99.90
57636;DHT22;43465;50.728;4.160;2023-11-19T06:31:15;12.40;99.90
57636;DHT22;43465;50.728;4.160;2023-11-19T06:33:42;12.30;99.90
57636;DHT22;43465;50.728;4.160;2023-11-19T06:36:08;12.20;99.90
57636;DHT22;43465;50.728;4.160;2023-11-19T06:38:35;12.20;99.90
57636;DHT22;43465;50.728;4.160;2023-11-19T06:41:00;12.20;99.90
57636;DHT22;43465;50.728;4.160;2023-11-19T06:43:27;12.20;99.90
57636;DHT22;43465;50.728;4.160;2023-11-19T06:45:53;12.20;99.90
57636;DHT22;43465;50.728;4.160;2023-11-19T06:48:19;12.20;99.90
57636;DHT22;43465;50.728;4.160;2023-11-19T06:50:45;12.20;99.90
57636;DHT22;43465;50.728;4.160;2023-11-19T06:53:11;12.30;99.90
57636;DHT22;43465;50.728;4.160;2023-11-19T06:55:36;12.30;99.90
57636;DHT22;43465;50.728;4.160;2023-11-19T06:58:02;12.30;99.90
57636;DHT22;43465;50.728;4.160;2023-11-19T07:00:29;12.30;99.90
57636;DHT22;43465;50.728;4.160;2023-11-19T07:02:55;12.20;99.90
57636;DHT22;43465;50.728;4.160;2023-11-19T07:05:21;12.20;99.90
57636;DHT22;43465;50.728;4.160;2023-11-19T07:07:46;12.20;99.90
57636;DHT22;43465;50.728;4.160;2023-11-19T07:10:12;12.20;99.90
57636;DHT22;43465;50.728;4.160;2023-11-19T07:12:38;12.10;99.90
57636;DHT22;43465;50.728;4.160;2023-11-19T07:15:04;12.10;99.90
57636;DHT22;43465;50.728;4.160;2023-11-19T07:17:31;12.10;99.90
57636;DHT22;43465;50.728;4.160;2023-11-19T07:19:57;12.10;99.90
57636;DHT22;43465;50.728;4.160;2023-11-19T07:22:25;12.10;99.90
57636;DHT22;43465;50.728;4.160;2023-11-19T07:24:51;12.10;99.90
57636;DHT22;43465;50.728;4.160;2023-11-19T07:27:19;12.10;99.90
57636;DHT22;43465;50.728;4.160;2023-11-19T07:29:44;12.10;99.90
57636;DHT22;43465;50.728;4.160;2023-11-19T07:32:10;12.10;99.90
57636;DHT22;43465;50.728;4.160;2023-11-19T07:34:36;12.10;99.90
57636;DHT22;43465;50.728;4.160;2023-11-19T07:37:02;12.00;99.90
57636;DHT22;43465;50.728;4.160;2023-11-19T07:39:28;12.00;99.90
57636;DHT22;43465;50.728;4.160;2023-11-19T07:41:54;11.90;99.90
57636;DHT22;43465;50.728;4.160;2023-11-19T07:44:20;11.90;99.90
57636;DHT22;43465;50.728;4.160;2023-11-19T07:46:47;11.90;99.90
57636;DHT22;43465;50.728;4.160;2023-11-19T07:49:13;11.80;99.90
57636;DHT22;43465;50.728;4.160;2023-11-19T07:51:39;11.80;99.90
57636;DHT22;43465;50.728;4.160;2023-11-19T07:54:05;11.80;99.90
57636;DHT22;43465;50.728;4.160;2023-11-19T07:56:33;11.80;99.90
57636;DHT22;43465;50.728;4.160;2023-11-19T07:58:59;11.80;99.90
57636;DHT22;43465;50.728;4.160;2023-11-19T08:01:25;11.90;99.90
57636;DHT22;43465;50.728;4.160;2023-11-19T08:03:51;11.90;99.90
57636;DHT22;43465;50.728;4.160;2023-11-19T08:06:16;11.90;99.90
57636;DHT22;43465;50.728;4.160;2023-11-19T08:08:42;11.90;99.90
57636;DHT22;43465;50.728;4.160;2023-11-19T08:11:08;12.00;99.90
57636;DHT22;43465;50.728;4.160;2023-11-19T08:13:34;12.00;99.90
57636;DHT22;43465;50.728;4.160;2023-11-19T08:15:59;12.10;99.90
57636;DHT22;43465;50.728;4.160;2023-11-19T08:18:25;12.10;99.90
57636;DHT22;43465;50.728;4.160;2023-11-19T08:20:50;12.20;99.90
57636;DHT22;43465;50.728;4.160;2023-11-19T08:23:20;12.30;99.90
57636;DHT22;43465;50.728;4.160;2023-11-19T08:25:46;12.40;99.90
57636;DHT22;43465;50.728;4.160;2023-11-19T08:28:11;12.50;99.90
57636;DHT22;43465;50.728;4.160;2023-11-19T08:30:38;12.50;99.90
57636;DHT22;43465;50.728;4.160;2023-11-19T08:33:04;12.60;99.90
57636;DHT22;43465;50.728;4.160;2023-11-19T08:35:31;12.70;99.90
57636;DHT22;43465;50.728;4.160;2023-11-19T08:37:57;12.70;99.90
57636;DHT22;43465;50.728;4.160;2023-11-19T08:40:24;12.70;99.90
57636;DHT22;43465;50.728;4.160;2023-11-19T08:42:51;12.70;99.90
57636;DHT22;43465;50.728;4.160;2023-11-19T08:45:17;12.70;99.90
57636;DHT22;43465;50.728;4.160;2023-11-19T08:47:43;12.70;99.90
57636;DHT22;43465;50.728;4.160;2023-11-19T08:50:11;12.70;99.90
57636;DHT22;43465;50.728;4.160;2023-11-19T08:52:36;12.60;99.90
57636;DHT22;43465;50.728;4.160;2023-11-19T08:55:02;12.50;99.90
57636;DHT22;43465;50.728;4.160;2023-11-19T08:57:28;12.50;99.90
57636;DHT22;43465;50.728;4.160;2023-11-19T08:59:54;12.40;99.90
57636;DHT22;43465;50.728;4.160;2023-11-19T09:02:19;12.20;99.90
57636;DHT22;43465;50.728;4.160;2023-11-19T09:04:45;12.00;99.90
57636;DHT22;43465;50.728;4.160;2023-11-19T09:07:11;11.90;99.90
57636;DHT22;43465;50.728;4.160;2023-11-19T09:09:36;11.80;99.90
57636;DHT22;43465;50.728;4.160;2023-11-19T09:12:03;11.70;99.90
57636;DHT22;43465;50.728;4.160;2023-11-19T09:14:32;11.70;99.90
57636;DHT22;43465;50.728;4.160;2023-11-19T09:16:57;11.70;99.90
57636;DHT22;43465;50.728;4.160;2023-11-19T09:19:24;11.70;99.90
57636;DHT22;43465;50.728;4.160;2023-11-19T09:21:50;11.70;99.90
57636;DHT22;43465;50.728;4.160;2023-11-19T09:24:16;11.70;99.90
57636;DHT22;43465;50.728;4.160;2023-11-19T09:26:41;11.60;99.90
57636;DHT22;43465;50.728;4.160;2023-11-19T09:29:08;11.60;99.90
57636;DHT22;43465;50.728;4.160;2023-11-19T09:31:33;11.60;99.90
57636;DHT22;43465;50.728;4.160;2023-11-19T09:34:00;11.60;99.90
57636;DHT22;43465;50.728;4.160;2023-11-19T09:36:25;11.60;99.90
57636;DHT22;43465;50.728;4.160;2023-11-19T09:38:51;11.60;99.90
57636;DHT22;43465;50.728;4.160;2023-11-19T09:41:17;11.60;99.90
57636;DHT22;43465;50.728;4.160;2023-11-19T09:43:45;11.60;99.90
57636;DHT22;43465;50.728;4.160;2023-11-19T09:46:13;11.70;99.90
57636;DHT22;43465;50.728;4.160;2023-11-19T09:48:40;11.80;99.90
57636;DHT22;43465;50.728;4.160;2023-11-19T09:51:08;11.80;99.90
57636;DHT22;43465;50.728;4.160;2023-11-19T09:53:36;11.80;99.90
57636;DHT22;43465;50.728;4.160;2023-11-19T09:56:03;11.90;99.90
57636;DHT22;43465;50.728;4.160;2023-11-19T09:58:30;12.00;99.90
57636;DHT22;43465;50.728;4.160;2023-11-19T10:00:57;12.00;99.90
57636;DHT22;43465;50.728;4.160;2023-11-19T10:03:27;12.10;99.90
57636;DHT22;43465;50.728;4.160;2023-11-19T10:05:55;12.20;99.90
57636;DHT22;43465;50.728;4.160;2023-11-19T10:08:21;12.30;99.90
57636;DHT22;43465;50.728;4.160;2023-11-19T10:10:48;12.30;99.90
57636;DHT22;43465;50.728;4.160;2023-11-19T10:13:13;12.30;99.90
57636;DHT22;43465;50.728;4.160;2023-11-19T10:15:40;12.30;99.90
57636;DHT22;43465;50.728;4.160;2023-11-19T10:18:06;12.30;99.90
57636;DHT22;43465;50.728;4.160;2023-11-19T10:20:41;12.30;99.90
57636;DHT22;43465;50.728;4.160;2023-11-19T10:23:07;12.30;99.90
57636;DHT22;43465;50.728;4.160;2023-11-19T10:25:33;12.30;99.90
57636;DHT22;43465;50.728;4.160;2023-11-19T10:28:00;12.30;99.90
57636;DHT22;43465;50.728;4.160;2023-11-19T10:30:30;12.30;99.90
57636;DHT22;43465;50.728;4.160;2023-11-19T10:35:34;12.30;99.90
57636;DHT22;43465;50.728;4.160;2023-11-19T10:38:20;12.50;99.90
57636;DHT22;43465;50.728;4.160;2023-11-19T10:40:50;12.60;99.90
57636;DHT22;43465;50.728;4.160;2023-11-19T10:43:17;12.60;99.90
57636;DHT22;43465;50.728;4.160;2023-11-19T10:45:43;12.60;99.90
57636;DHT22;43465;50.728;4.160;2023-11-19T10:48:09;12.80;99.90
57636;DHT22;43465;50.728;4.160;2023-11-19T10:50:39;13.10;99.90
57636;DHT22;43465;50.728;4.160;2023-11-19T10:53:06;13.20;99.90
57636;DHT22;43465;50.728;4.160;2023-11-19T10:55:38;13.20;99.90
57636;DHT22;43465;50.728;4.160;2023-11-19T10:58:05;13.10;99.90
57636;DHT22;43465;50.728;4.160;2023-11-19T11:03:18;13.10;99.90
57636;DHT22;43465;50.728;4.160;2023-11-19T11:05:47;13.00;99.90
57636;DHT22;43465;50.728;4.160;2023-11-19T11:08:13;12.90;99.90
57636;DHT22;43465;50.728;4.160;2023-11-19T11:10:59;12.80;99.90
57636;DHT22;43465;50.728;4.160;2023-11-19T11:13:26;12.70;99.90
57636;DHT22;43465;50.728;4.160;2023-11-19T11:15:55;12.70;99.90
57636;DHT22;43465;50.728;4.160;2023-11-19T11:18:23;12.80;99.90
57636;DHT22;43465;50.728;4.160;2023-11-19T11:20:54;12.80;99.90
57636;DHT22;43465;50.728;4.160;2023-11-19T11:23:37;12.90;99.90
57636;DHT22;43465;50.728;4.160;2023-11-19T11:36:57;13.40;99.90
57636;DHT22;43465;50.728;4.160;2023-11-19T11:39:29;13.50;99.90
57636;DHT22;43465;50.728;4.160;2023-11-19T11:50:15;13.70;99.90
57636;DHT22;43465;50.728;4.160;2023-11-19T11:55:28;13.60;99.90
57636;DHT22;43465;50.728;4.160;2023-11-19T11:57:55;13.60;99.90
57636;DHT22;43465;50.728;4.160;2023-11-19T12:00:31;13.50;99.90
57636;DHT22;43465;50.728;4.160;2023-11-19T12:03:00;13.40;99.90
57636;DHT22;43465;50.728;4.160;2023-11-19T12:05:26;13.40;99.90
57636;DHT22;43465;50.728;4.160;2023-11-19T12:08:05;13.40;99.90
57636;DHT22;43465;50.728;4.160;2023-11-19T12:10:53;13.40;99.90
57636;DHT22;43465;50.728;4.160;2023-11-19T12:13:20;13.40;99.90
57636;DHT22;43465;50.728;4.160;2023-11-19T12:18:31;13.40;99.90
57636;DHT22;43465;50.728;4.160;2023-11-19T12:20:58;13.40;99.90
57636;DHT22;43465;50.728;4.160;2023-11-19T12:23:29;13.40;99.90
57636;DHT22;43465;50.728;4.160;2023-11-19T12:25:55;13.40;99.90
57636;DHT22;43465;50.728;4.160;2023-11-19T12:28:21;13.50;99.90
57636;DHT22;43465;50.728;4.160;2023-11-19T12:30:48;13.50;99.90
57636;DHT22;43465;50.728;4.160;2023-11-19T12:33:14;13.50;99.90
57636;DHT22;43465;50.728;4.160;2023-11-19T12:35:45;13.50;99.90
57636;DHT22;43465;50.728;4.160;2023-11-19T12:38:24;13.40;99.90
57636;DHT22;43465;50.728;4.160;2023-11-19T12:41:06;13.30;99.90
57636;DHT22;43465;50.728;4.160;2023-11-19T12:43:32;13.40;99.90
57636;DHT22;43465;50.728;4.160;2023-11-19T12:46:00;13.50;99.90
57636;DHT22;43465;50.728;4.160;2023-11-19T12:48:26;13.60;99.90
57636;DHT22;43465;50.728;4.160;2023-11-19T12:50:58;13.70;99.90
57636;DHT22;43465;50.728;4.160;2023-11-19T12:53:26;13.70;99.90
57636;DHT22;43465;50.728;4.160;2023-11-19T12:55:52;13.80;99.90
57636;DHT22;43465;50.728;4.160;2023-11-19T12:58:32;13.70;99.90
57636;DHT22;43465;50.728;4.160;2023-11-19T13:01:01;13.70;99.90
57636;DHT22;43465;50.728;4.160;2023-11-19T13:03:34;13.60;99.90
57636;DHT22;43465;50.728;4.160;2023-11-19T13:06:08;13.50;99.90
57636;DHT22;43465;50.728;4.160;2023-11-19T13:08:43;13.30;99.90
57636;DHT22;43465;50.728;4.160;2023-11-19T13:11:14;13.10;99.90
57636;DHT22;43465;50.728;4.160;2023-11-19T13:13:55;13.00;99.90
57636;DHT22;43465;50.728;4.160;2023-11-19T13:16:21;12.80;99.90
57636;DHT22;43465;50.728;4.160;2023-11-19T13:18:47;12.80;99.90
57636;DHT22;43465;50.728;4.160;2023-11-19T13:21:13;12.90;99.90
57636;DHT22;43465;50.728;4.160;2023-11-19T13:23:38;12.90;99.90
57636;DHT22;43465;50.728;4.160;2023-11-19T13:26:04;12.90;99.90
57636;DHT22;43465;50.728;4.160;2023-11-19T13:28:31;13.10;99.90
57636;DHT22;43465;50.728;4.160;2023-11-19T13:30:56;13.10;99.90
57636;DHT22;43465;50.728;4.160;2023-11-19T13:33:22;13.30;99.90
57636;DHT22;43465;50.728;4.160;2023-11-19T13:35:47;13.40;99.90
57636;DHT22;43465;50.728;4.160;2023-11-19T13:38:13;13.40;99.90
57636;DHT22;43465;50.728;4.160;2023-11-19T13:40:38;13.40;99.90
57636;DHT22;43465;50.728;4.160;2023-11-19T13:43:04;13.40;99.90
57636;DHT22;43465;50.728;4.160;2023-11-19T13:45:30;13.40;99.90
57636;DHT22;43465;50.728;4.160;2023-11-19T13:47:56;13.40;99.90
57636;DHT22;43465;50.728;4.160;2023-11-19T13:50:21;13.40;99.90
57636;DHT22;43465;50.728;4.160;2023-11-19T13:52:48;13.50;99.90
57636;DHT22;43465;50.728;4.160;2023-11-19T13:55:14;13.50;99.90
57636;DHT22;43465;50.728;4.160;2023-11-19T13:57:42;13.60;99.90
57636;DHT22;43465;50.728;4.160;2023-11-19T14:00:09;13.50;99.90
57636;DHT22;43465;50.728;4.160;2023-11-19T14:02:42;13.50;99.90
57636;DHT22;43465;50.728;4.160;2023-11-19T14:05:09;13.60;99.90
57636;DHT22;43465;50.728;4.160;2023-11-19T14:07:36;13.60;99.90
57636;DHT22;43465;50.728;4.160;2023-11-19T14:10:02;13.50;99.90
57636;DHT22;43465;50.728;4.160;2023-11-19T14:12:28;13.50;99.90
57636;DHT22;43465;50.728;4.160;2023-11-19T14:14:54;13.50;99.90
57636;DHT22;43465;50.728;4.160;2023-11-19T14:17:20;13.40;99.90
57636;DHT22;43465;50.728;4.160;2023-11-19T14:19:46;13.30;99.90
57636;DHT22;43465;50.728;4.160;2023-11-19T14:22:11;13.20;99.90
57636;DHT22;43465;50.728;4.160;2023-11-19T14:24:37;13.20;99.90
57636;DHT22;43465;50.728;4.160;2023-11-19T14:27:03;13.20;99.90
57636;DHT22;43465;50.728;4.160;2023-11-19T14:29:29;13.40;99.90
57636;DHT22;43465;50.728;4.160;2023-11-19T14:31:56;13.50;99.90
57636;DHT22;43465;50.728;4.160;2023-11-19T14:34:22;13.50;99.90
57636;DHT22;43465;50.728;4.160;2023-11-19T14:36:48;13.40;99.90
57636;DHT22;43465;50.728;4.160;2023-11-19T14:39:14;13.30;99.90
57636;DHT22;43465;50.728;4.160;2023-11-19T14:41:40;13.30;99.90
57636;DHT22;43465;50.728;4.160;2023-11-19T14:44:06;13.30;99.90
57636;DHT22;43465;50.728;4.160;2023-11-19T14:46:31;13.30;99.90
57636;DHT22;43465;50.728;4.160;2023-11-19T14:48:57;13.30;99.90
57636;DHT22;43465;50.728;4.160;2023-11-19T14:51:23;13.30;99.90
57636;DHT22;43465;50.728;4.160;2023-11-19T14:53:48;13.20;99.90
57636;DHT22;43465;50.728;4.160;2023-11-19T14:56:14;13.20;99.90
57636;DHT22;43465;50.728;4.160;2023-11-19T14:58:40;13.20;99.90
57636;DHT22;43465;50.728;4.160;2023-11-19T15:01:06;13.20;99.90
57636;DHT22;43465;50.728;4.160;2023-11-19T15:03:36;13.30;99.90
57636;DHT22;43465;50.728;4.160;2023-11-19T15:06:02;13.30;99.90
57636;DHT22;43465;50.728;4.160;2023-11-19T15:08:27;13.30;99.90
57636;DHT22;43465;50.728;4.160;2023-11-19T15:10:53;13.30;99.90
57636;DHT22;43465;50.728;4.160;2023-11-19T15:13:18;13.40;99.90
57636;DHT22;43465;50.728;4.160;2023-11-19T15:15:44;13.30;99.90
57636;DHT22;43465;50.728;4.160;2023-11-19T15:18:10;13.40;99.90
57636;DHT22;43465;50.728;4.160;2023-11-19T15:20:35;13.30;99.90
57636;DHT22;43465;50.728;4.160;2023-11-19T15:23:01;13.30;99.90
57636;DHT22;43465;50.728;4.160;2023-11-19T15:25:27;13.30;99.90
57636;DHT22;43465;50.728;4.160;2023-11-19T15:27:53;13.30;99.90
57636;DHT22;43465;50.728;4.160;2023-11-19T15:30:18;13.30;99.90
57636;DHT22;43465;50.728;4.160;2023-11-19T15:32:44;13.30;99.90
57636;DHT22;43465;50.728;4.160;2023-11-19T15:35:10;13.30;99.90
57636;DHT22;43465;50.728;4.160;2023-11-19T15:37:36;13.30;99.90
57636;DHT22;43465;50.728;4.160;2023-11-19T15:40:04;13.20;99.90
57636;DHT22;43465;50.728;4.160;2023-11-19T15:42:33;13.20;99.90
57636;DHT22;43465;50.728;4.160;2023-11-19T15:44:59;13.10;99.90
57636;DHT22;43465;50.728;4.160;2023-11-19T15:47:25;13.10;99.90
57636;DHT22;43465;50.728;4.160;2023-11-19T15:49:50;13.00;99.90
57636;DHT22;43465;50.728;4.160;2023-11-19T15:52:16;12.80;99.90
57636;DHT22;43465;50.728;4.160;2023-11-19T15:54:42;12.60;99.90
57636;DHT22;43465;50.728;4.160;2023-11-19T15:57:07;12.40;99.90
57636;DHT22;43465;50.728;4.160;2023-11-19T15:59:33;12.20;99.90